Time;durP1;ratioP1;P1;durP2;ratioP2;P2;SDS_P1;SDS_P2;PMS_P1;PMS_P2;Temp;Humidity;BMP_temperature;BMP_pressure;BME280_temperature;BME280_humidity;BME280_pressure;Samples;Min_cycle;Max_cycle;Signal;HPM_P1;HPM_P2
2021/03/09 00:01:11;;;;;;;6.42;3.02;;;;;;;-3.91;65.01;99467.13;1788366;80;21140;-69
2021/03/09 00:03:38;;;;;;;8.58;3.22;;;;;;;-3.91;64.78;99461.75;1788583;80;20879;-68
2021/03/09 00:06:05;;;;;;;12.82;4.37;;;;;;;-3.94;65.05;99462.20;1788553;80;21073;-68
2021/03/09 00:08:33;;;;;;;26.20;8.75;;;;;;;-3.93;65.81;99468.69;1788494;80;21191;-68
2021/03/09 00:11:01;;;;;;;12.78;5.65;;;;;;;-3.90;65.73;99466.08;1788650;80;21529;-69
2021/03/09 00:13:28;;;;;;;11.05;4.45;;;;;;;-3.87;65.68;99468.31;1788547;80;21648;-69
2021/03/09 00:15:55;;;;;;;8.20;3.92;;;;;;;-3.87;65.80;99468.31;1788434;80;21133;-69
2021/03/09 00:18:23;;;;;;;5.97;2.37;;;;;;;-3.88;66.27;99466.15;1788604;80;21104;-69
2021/03/09 00:20:51;;;;;;;5.87;2.85;;;;;;;-3.88;65.91;99466.67;1788541;80;21117;-69
2021/03/09 00:23:18;;;;;;;8.80;3.40;;;;;;;-3.86;65.86;99461.91;1788330;80;21156;-69
2021/03/09 00:25:47;;;;;;;9.00;3.42;;;;;;;-3.86;66.46;99462.72;1788316;80;21133;-70
2021/03/09 00:28:20;;;;;;;7.22;2.92;;;;;;;-3.86;66.89;99463.25;1788521;80;21140;-69
2021/03/09 00:30:47;;;;;;;7.58;3.30;;;;;;;-3.84;66.25;99463.84;1788226;80;21086;-69
2021/03/09 00:33:15;;;;;;;8.53;3.10;;;;;;;-3.85;66.03;99467.56;1787361;80;21485;-68
2021/03/09 00:35:42;;;;;;;7.87;2.80;;;;;;;-3.84;66.63;99462.50;1752262;81;21603;-69
2021/03/09 00:38:10;;;;;;;6.12;2.70;;;;;;;-3.83;66.49;99462.80;1752077;81;21189;-69
2021/03/09 00:40:38;;;;;;;9.73;2.98;;;;;;;-3.83;66.48;99460.11;1752228;81;21103;-69
2021/03/09 00:43:05;;;;;;;4.33;2.00;;;;;;;-3.84;66.57;99458.48;1752259;80;21526;-68
2021/03/09 00:45:34;;;;;;;6.90;3.25;;;;;;;-3.84;67.47;99466.00;1752095;81;21145;-68
2021/03/09 00:48:02;;;;;;;6.62;2.80;;;;;;;-3.85;67.16;99464.36;1752106;81;21253;-69
2021/03/09 00:50:30;;;;;;;8.98;2.60;;;;;;;-3.85;67.39;99465.70;1752188;81;21087;-68
2021/03/09 00:52:58;;;;;;;4.90;2.12;;;;;;;-3.86;67.29;99465.41;1752153;81;21162;-68
2021/03/09 00:55:26;;;;;;;5.65;2.60;;;;;;;-3.88;68.15;99466.67;1752138;81;21672;-68
2021/03/09 00:57:59;;;;;;;4.05;2.10;;;;;;;-3.88;67.97;99470.70;1752127;81;21062;-68
2021/03/09 01:00:29;;;;;;;6.55;2.30;;;;;;;-3.92;67.48;99467.64;1752145;81;22060;-69
2021/03/09 01:02:56;;;;;;;5.67;2.10;;;;;;;-3.94;67.65;99470.25;1752179;81;21193;-68
2021/03/09 01:05:26;;;;;;;5.33;2.10;;;;;;;-3.96;68.67;99465.11;1752159;81;21180;-69
2021/03/09 01:07:54;;;;;;;4.28;1.92;;;;;;;-3.96;67.44;99468.31;1752160;81;21124;-69
2021/03/09 01:10:22;;;;;;;7.30;2.50;;;;;;;-3.94;66.79;99476.95;1752282;81;21561;-68
2021/03/09 01:12:49;;;;;;;5.47;2.00;;;;;;;-3.97;66.89;99476.05;1752160;80;21390;-69
2021/03/09 01:15:17;;;;;;;8.35;2.25;;;;;;;-3.95;68.16;99476.66;1752040;81;21205;-69
2021/03/09 01:17:44;;;;;;;4.33;2.40;;;;;;;-3.95;67.53;99475.31;1752353;80;20940;-69
2021/03/09 01:20:13;;;;;;;4.37;2.00;;;;;;;-3.98;67.30;99476.58;1752089;81;21148;-69
2021/03/09 01:22:40;;;;;;;5.17;2.33;;;;;;;-4.00;67.29;99478.14;1752357;81;21186;-69
2021/03/09 01:25:09;;;;;;;5.72;1.92;;;;;;;-4.01;67.74;99477.02;1752317;81;21361;-69
2021/03/09 01:27:37;;;;;;;6.22;2.17;;;;;;;-3.98;67.42;99483.28;1751930;81;21087;-69
2021/03/09 01:30:07;;;;;;;7.15;2.30;;;;;;;-3.99;67.55;99479.78;1752204;81;20955;-69
2021/03/09 01:32:35;;;;;;;4.47;1.82;;;;;;;-4.00;67.72;99476.80;1740676;81;21473;-70
2021/03/09 01:35:05;;;;;;;5.00;2.22;;;;;;;-4.00;66.72;99478.14;1736023;81;21121;-70
2021/03/09 01:37:32;;;;;;;5.37;2.10;;;;;;;-4.00;66.56;99481.34;1736104;82;21389;-69
2021/03/09 01:39:59;;;;;;;4.28;1.67;;;;;;;-4.00;66.46;99475.45;1735907;82;21193;-70
2021/03/09 01:42:27;;;;;;;6.55;1.98;;;;;;;-4.00;66.40;99482.16;1735945;82;21002;-70
2021/03/09 01:44:55;;;;;;;7.08;2.80;;;;;;;-3.99;66.05;99474.94;1736153;82;21482;-69
2021/03/09 01:47:22;;;;;;;6.17;1.62;;;;;;;-3.97;65.85;99477.39;1736208;81;21128;-70
2021/03/09 01:49:50;;;;;;;3.87;1.60;;;;;;;-4.00;64.31;99476.80;1735996;81;22238;-69
2021/03/09 01:52:18;;;;;;;5.62;2.00;;;;;;;-3.97;63.56;99479.56;1735979;82;20962;-68
2021/03/09 01:54:45;;;;;;;4.80;1.65;;;;;;;-3.98;62.86;99479.26;1736095;81;20970;-68
2021/03/09 01:57:12;;;;;;;5.12;2.00;;;;;;;-4.00;62.99;99480.83;1709204;82;21081;-69
2021/03/09 01:59:40;;;;;;;4.15;1.95;;;;;;;-4.01;63.34;99477.84;1736176;82;21121;-68
2021/03/09 02:02:08;;;;;;;4.92;2.10;;;;;;;-3.97;63.72;99485.44;1735992;82;21710;-68
2021/03/09 02:04:36;;;;;;;6.83;2.10;;;;;;;-3.96;63.26;99486.56;1736027;82;20919;-68
2021/03/09 02:07:03;;;;;;;6.78;2.62;;;;;;;-3.96;62.58;99479.86;1736200;81;21549;-68
2021/03/09 02:09:32;;;;;;;4.08;2.40;;;;;;;-3.96;62.89;99479.03;1735951;81;21200;-68
2021/03/09 02:12:34;;;;;;;3.42;1.45;;;;;;;-3.94;61.46;99478.29;1709247;82;20990;-69
2021/03/09 02:15:47;;;;;;;2.50;1.70;;;;;;;-3.96;61.11;99481.72;1736510;82;22538;-68
2021/03/09 02:18:44;;;;;;;3.47;1.20;;;;;;;-3.97;59.18;99485.44;1736002;82;21133;-69
2021/03/09 02:22:00;;;;;;;6.62;1.65;;;;;;;-4.02;59.15;99492.81;1736173;82;21529;-70
2021/03/09 02:25:05;;;;;;;3.45;1.52;;;;;;;-4.02;58.93;99494.97;1735973;82;20966;-70
2021/03/09 02:28:08;;;;;;;2.00;1.37;;;;;;;-4.02;58.13;99497.66;1736089;82;21121;-69
2021/03/09 02:30:41;;;;;;;5.45;1.90;;;;;;;-4.02;60.16;99505.70;1736134;82;21412;-70
2021/03/09 02:33:18;;;;;;;3.90;1.62;;;;;;;-4.00;58.92;99502.27;1724482;82;21086;-71
2021/03/09 02:36:06;;;;;;;2.12;1.15;;;;;;;-4.00;58.53;99506.30;1736692;82;20912;-71
2021/03/09 02:38:45;;;;;;;2.37;1.50;;;;;;;-4.01;58.84;99501.16;1705500;84;20967;-72
2021/03/09 02:41:12;;;;;;;1.87;1.00;;;;;;;-3.99;56.02;99507.94;1736512;82;21133;-72
2021/03/09 02:43:46;;;;;;;4.47;1.75;;;;;;;-3.97;56.15;99504.22;1736543;82;21191;-71
2021/03/09 02:46:15;;;;;;;3.85;1.65;;;;;;;-3.97;56.17;99505.55;1736471;82;21015;-70
2021/03/09 02:48:43;;;;;;;4.33;1.72;;;;;;;-3.98;56.55;99508.76;1736549;82;21094;-70
2021/03/09 02:51:11;;;;;;;3.58;1.25;;;;;;;-4.00;56.32;99511.66;1688103;82;21146;-71
2021/03/09 02:53:49;;;;;;;3.33;1.17;;;;;;;-4.00;56.37;99511.66;1736633;82;21579;-70
2021/03/09 02:56:17;;;;;;;3.80;1.40;;;;;;;-3.96;56.91;99511.22;1736644;82;22251;-70
2021/03/09 02:58:53;;;;;;;6.03;1.47;;;;;;;-3.91;56.98;99507.34;1736453;82;21574;-70
2021/03/09 03:01:27;;;;;;;3.10;1.00;;;;;;;-3.88;56.46;99508.24;1736592;82;21125;-70
2021/03/09 03:03:56;;;;;;;2.62;0.95;;;;;;;-3.89;55.09;99510.63;1738748;81;20982;-70
2021/03/09 03:06:24;;;;;;;1.77;0.78;;;;;;;-3.93;56.19;99512.94;1735170;82;21061;-70
2021/03/09 03:08:52;;;;;;;3.15;1.30;;;;;;;-3.93;56.23;99519.64;1767068;81;22362;-70
2021/03/09 03:11:20;;;;;;;2.10;0.93;;;;;;;-3.93;55.30;99520.16;1696933;82;21049;-70
2021/03/09 03:13:48;;;;;;;1.70;0.82;;;;;;;-3.95;55.68;99523.06;1767030;81;21093;-71
2021/03/09 03:16:17;;;;;;;2.35;1.00;;;;;;;-3.97;55.37;99520.30;1767540;80;21107;-70
2021/03/09 03:18:45;;;;;;;4.10;1.10;;;;;;;-4.00;55.44;99526.93;1741972;81;21087;-69
2021/03/09 03:21:14;;;;;;;3.75;1.00;;;;;;;-4.04;55.33;99531.09;1735218;82;21857;-70
2021/03/09 03:23:43;;;;;;;1.85;1.02;;;;;;;-4.04;56.00;99532.44;1767122;81;21027;-69
2021/03/09 03:26:11;;;;;;;2.20;1.10;;;;;;;-4.02;56.02;99532.52;1752135;81;21607;-70
2021/03/09 03:28:43;;;;;;;2.60;1.10;;;;;;;-3.99;56.06;99533.41;1767087;80;21095;-70
2021/03/09 03:31:11;;;;;;;2.50;1.20;;;;;;;-3.96;55.56;99534.83;1767647;81;21143;-71
2021/03/09 03:33:38;;;;;;;4.10;1.40;;;;;;;-3.97;56.36;99534.53;1758163;80;21813;-71
2021/03/09 03:36:07;;;;;;;2.90;1.15;;;;;;;-3.99;55.88;99545.48;1781185;80;21077;-70
2021/03/09 03:38:39;;;;;;;2.55;1.25;;;;;;;-4.02;56.24;99549.94;1781422;80;21069;-70
2021/03/09 03:41:08;;;;;;;2.47;1.37;;;;;;;-4.01;55.73;99555.61;1781277;80;21178;-69
2021/03/09 03:43:36;;;;;;;3.42;1.37;;;;;;;-4.01;57.37;99556.95;1781477;80;21133;-70
2021/03/09 03:46:04;;;;;;;2.75;1.40;;;;;;;-3.99;56.05;99555.38;1781289;80;21192;-68
2021/03/09 03:48:35;;;;;;;3.08;1.00;;;;;;;-3.98;56.00;99558.37;1781413;80;21132;-68
2021/03/09 03:51:06;;;;;;;3.25;1.57;;;;;;;-4.03;55.99;99563.05;1781259;80;21172;-68
2021/03/09 03:54:18;;;;;;;4.67;1.32;;;;;;;-4.08;56.51;99558.08;1781044;80;21192;-70
2021/03/09 03:57:24;;;;;;;2.02;1.10;;;;;;;-4.09;56.62;99561.80;1736656;82;21528;-70
2021/03/09 03:59:53;;;;;;;1.90;1.10;;;;;;;-4.10;56.42;99568.20;1736371;82;21822;-70
2021/03/09 04:02:21;;;;;;;1.47;1.00;;;;;;;-4.11;57.85;99568.72;1736663;82;21127;-69
2021/03/09 04:04:49;;;;;;;3.45;1.37;;;;;;;-4.10;55.93;99569.02;1736992;82;21139;-69
2021/03/09 04:07:26;;;;;;;2.55;1.20;;;;;;;-4.10;56.07;99567.69;1710323;82;20922;-69
2021/03/09 04:09:55;;;;;;;2.87;1.25;;;;;;;-4.11;56.50;99576.77;1707023;84;21147;-71
2021/03/09 04:12:25;;;;;;;2.85;1.55;;;;;;;-4.12;56.17;99572.45;1707554;84;21396;-69
2021/03/09 04:14:52;;;;;;;2.27;1.40;;;;;;;-4.12;55.36;99572.45;1707638;84;21606;-70
2021/03/09 04:17:20;;;;;;;6.67;1.52;;;;;;;-4.14;54.69;99578.55;1704459;84;21170;-70
2021/03/09 04:19:47;;;;;;;4.10;1.20;;;;;;;-4.17;55.32;99580.32;1707478;84;21115;-71
2021/03/09 04:22:15;;;;;;;2.00;1.10;;;;;;;-4.18;54.70;99579.20;1707511;84;21124;-68
2021/03/09 04:24:43;;;;;;;3.50;1.35;;;;;;;-4.20;54.10;99577.26;1707396;84;22284;-69
2021/03/09 04:27:20;;;;;;;4.45;1.57;;;;;;;-4.19;54.14;99582.41;1681302;84;21071;-69
2021/03/09 04:29:40;;;;;;;7.67;2.17;;;;;;;-4.18;55.16;99584.05;1705950;84;21143;-68
2021/03/09 04:32:08;;;;;;;5.22;1.67;;;;;;;-4.16;54.82;99581.96;1707206;84;21199;-68
2021/03/09 04:34:35;;;;;;;6.30;2.45;;;;;;;-4.15;54.20;99581.45;1742599;81;20977;-69
2021/03/09 04:37:03;;;;;;;3.92;1.82;;;;;;;-4.16;53.28;99581.14;1767289;81;21136;-70
2021/03/09 04:39:30;;;;;;;3.45;1.50;;;;;;;-4.18;53.05;99584.05;1739795;81;21179;-70
2021/03/09 04:41:58;;;;;;;2.92;1.47;;;;;;;-4.18;52.75;99583.22;1724435;82;21101;-71
2021/03/09 04:44:25;;;;;;;4.92;2.20;;;;;;;-4.19;52.51;99588.28;1695410;83;21249;-70
2021/03/09 04:46:53;;;;;;;5.87;2.80;;;;;;;-4.20;53.21;99587.98;1719693;83;20991;-70
2021/03/09 04:49:21;;;;;;;6.22;2.15;;;;;;;-4.20;53.53;99594.16;1719672;83;21696;-71
2021/03/09 04:51:49;;;;;;;5.85;2.35;;;;;;;-4.19;53.04;99593.64;1718971;83;21062;-70
2021/03/09 04:54:16;;;;;;;4.37;1.62;;;;;;;-4.19;53.57;99595.81;1719675;83;21693;-70
2021/03/09 04:56:44;;;;;;;4.62;2.00;;;;;;;-4.16;53.94;99598.57;1719660;83;20953;-70
2021/03/09 04:59:12;;;;;;;10.28;4.22;;;;;;;-4.14;53.69;99596.49;1719562;83;21162;-70
2021/03/09 05:01:39;;;;;;;8.80;3.08;;;;;;;-4.11;53.80;99600.89;1719861;83;21170;-69
2021/03/09 05:04:08;;;;;;;4.72;2.35;;;;;;;-4.09;54.55;99610.06;1719994;83;21535;-71
2021/03/09 05:06:35;;;;;;;6.75;2.95;;;;;;;-4.08;54.66;99614.38;1720100;82;21547;-70
2021/03/09 05:09:04;;;;;;;9.98;4.25;;;;;;;-4.06;54.89;99614.47;1719998;83;21020;-70
2021/03/09 05:11:33;;;;;;;8.40;4.08;;;;;;;-4.02;54.62;99607.59;1719994;83;20984;-69
2021/03/09 05:14:01;;;;;;;7.58;3.30;;;;;;;-3.98;55.48;99614.68;1719999;83;21037;-69
2021/03/09 05:16:28;;;;;;;12.78;5.05;;;;;;;-3.96;54.70;99615.28;1720019;83;21579;-69
2021/03/09 05:18:56;;;;;;;7.33;3.45;;;;;;;-3.95;53.55;99618.78;1719949;83;21483;-70
2021/03/09 05:21:23;;;;;;;9.93;3.77;;;;;;;-3.96;53.17;99622.51;1722481;80;20932;-71
2021/03/09 05:23:51;;;;;;;9.43;3.85;;;;;;;-3.97;53.63;99623.55;1719180;82;21640;-70
2021/03/09 05:26:20;;;;;;;10.45;4.67;;;;;;;-3.98;53.56;99624.06;1719315;80;21376;-71
2021/03/09 05:28:49;;;;;;;8.98;3.80;;;;;;;-3.96;53.29;99631.89;1718721;82;21693;-72
2021/03/09 05:31:16;;;;;;;9.58;4.08;;;;;;;-3.95;53.54;99636.22;1718583;83;21673;-70
2021/03/09 05:33:44;;;;;;;5.60;2.75;;;;;;;-3.92;54.05;99630.41;1719397;82;21166;-69
2021/03/09 05:36:11;;;;;;;11.33;4.12;;;;;;;-3.86;53.23;99638.92;1719524;83;21077;-68
2021/03/09 05:38:39;;;;;;;18.73;4.92;;;;;;;-3.83;51.70;99637.97;1719693;83;21368;-73
2021/03/09 05:41:06;;;;;;;8.03;2.40;;;;;;;-3.81;53.01;99641.77;1723809;80;21083;-69
2021/03/09 05:43:35;;;;;;;6.62;2.05;;;;;;;-3.80;51.61;99642.89;1733109;82;21527;-69
2021/03/09 05:46:03;;;;;;;7.62;2.30;;;;;;;-3.78;51.74;99643.49;1719914;83;21074;-69
2021/03/09 05:48:32;;;;;;;16.20;5.15;;;;;;;-3.75;51.87;99654.30;1719459;83;21139;-69
2021/03/09 05:50:59;;;;;;;10.72;3.22;;;;;;;-3.75;52.32;99649.76;1718746;83;22070;-71
2021/03/09 05:53:27;;;;;;;8.65;2.90;;;;;;;-3.73;52.76;99666.45;1721870;80;21063;-70
2021/03/09 05:55:54;;;;;;;5.35;2.33;;;;;;;-3.68;52.67;99664.45;1735093;82;21605;-69
2021/03/09 05:58:22;;;;;;;5.83;2.65;;;;;;;-3.60;52.93;99666.04;1749680;81;21626;-69
2021/03/09 06:00:50;;;;;;;3.20;1.42;;;;;;;-3.55;53.41;99672.39;1749763;82;21206;-71
2021/03/09 06:03:18;;;;;;;8.48;2.65;;;;;;;-3.50;51.97;99665.02;1749744;82;22363;-70
2021/03/09 06:05:46;;;;;;;6.28;2.45;;;;;;;-3.50;51.53;99678.44;1749654;81;21147;-68
2021/03/09 06:08:13;;;;;;;4.95;2.30;;;;;;;-3.48;52.32;99677.17;1749720;82;20976;-72
2021/03/09 06:10:41;;;;;;;5.97;3.30;;;;;;;-3.44;52.17;99681.02;1749651;81;21146;-72
2021/03/09 06:13:09;;;;;;;18.07;5.03;;;;;;;-3.40;52.07;99681.41;1749666;81;21186;-71
2021/03/09 06:15:53;;;;;;;9.63;4.55;;;;;;;-3.37;52.06;99693.86;1745278;82;21363;-73
2021/03/09 06:18:24;;;;;;;16.48;6.25;;;;;;;-3.34;51.99;99690.73;1738562;82;21038;-71
2021/03/09 06:21:12;;;;;;;14.47;7.10;;;;;;;-3.34;51.32;99701.47;1740390;82;21097;-71
2021/03/09 06:23:41;;;;;;;21.60;8.78;;;;;;;-3.33;51.85;99697.75;1728628;82;21179;-70
2021/03/09 06:26:37;;;;;;;12.00;5.08;;;;;;;-3.29;51.53;99699.98;1736392;81;21148;-70
2021/03/09 06:29:12;;;;;;;5.78;2.55;;;;;;;-3.27;51.99;99700.59;1729602;82;21195;-71
2021/03/09 06:31:53;;;;;;;5.75;2.42;;;;;;;-3.25;51.23;99700.66;1730625;82;21190;-71
2021/03/09 06:34:31;;;;;;;4.75;2.33;;;;;;;-3.24;50.35;99698.28;1732010;82;21193;-71
2021/03/09 06:37:18;;;;;;;4.45;1.80;;;;;;;-3.23;50.43;99701.78;1728403;82;21147;-70
2021/03/09 06:39:57;;;;;;;3.87;1.85;;;;;;;-3.17;50.72;99707.09;1741527;82;21091;-69
2021/03/09 06:42:35;;;;;;;3.90;2.10;;;;;;;-3.12;50.82;99714.48;1729980;82;22258;-71
2021/03/09 06:45:15;;;;;;;4.08;2.30;;;;;;;-3.06;51.10;99718.96;1725513;82;21541;-70
2021/03/09 06:47:47;;;;;;;7.25;1.95;;;;;;;-2.96;50.13;99713.89;1724118;82;21452;-70
2021/03/09 06:50:17;;;;;;;5.67;2.20;;;;;;;-2.94;49.79;99718.52;1701113;83;21149;-69
2021/03/09 06:52:52;;;;;;;4.83;2.10;;;;;;;-2.97;49.18;99723.00;1723593;83;21197;-70
2021/03/09 06:55:19;;;;;;;3.40;1.55;;;;;;;-3.01;49.71;99726.65;1721128;83;22352;-67
2021/03/09 06:58:04;;;;;;;4.10;2.15;;;;;;;-3.02;48.66;99729.56;1665027;83;21166;-67
2021/03/09 07:00:32;;;;;;;4.65;2.30;;;;;;;-3.04;49.39;99728.95;1724851;83;21011;-66
2021/03/09 07:02:59;;;;;;;5.53;2.60;;;;;;;-3.03;50.84;99728.73;1724794;82;22045;-67
2021/03/09 07:05:27;;;;;;;5.45;2.02;;;;;;;-3.02;50.07;99742.47;1724598;83;21023;-69
2021/03/09 07:07:55;;;;;;;9.35;3.80;;;;;;;-3.02;49.90;99738.96;1743007;81;21387;-66
2021/03/09 07:10:26;;;;;;;8.43;3.02;;;;;;;-3.06;49.89;99746.64;1729557;81;21178;-70
2021/03/09 07:12:53;;;;;;;5.10;2.35;;;;;;;-3.06;50.47;99742.61;1754838;81;21171;-69
2021/03/09 07:15:21;;;;;;;7.08;2.50;;;;;;;-3.01;51.18;99747.31;1727173;82;21589;-66
2021/03/09 07:17:51;;;;;;;12.30;5.17;;;;;;;-2.94;51.33;99754.78;1742492;82;21001;-66
2021/03/09 07:20:19;;;;;;;10.98;2.98;;;;;;;-2.86;51.69;99754.46;1728341;82;21368;-67
2021/03/09 07:22:52;;;;;;;7.95;2.10;;;;;;;-2.77;54.04;99753.64;1714010;83;21178;-66
2021/03/09 07:25:19;;;;;;;7.50;2.83;;;;;;;-2.73;55.87;99757.00;1721965;83;21052;-67
2021/03/09 07:28:06;;;;;;;6.92;2.85;;;;;;;-2.69;57.14;99746.11;1721931;83;21083;-69
2021/03/09 07:30:39;;;;;;;9.88;3.45;;;;;;;-2.58;57.89;99745.05;1695498;83;21587;-68
2021/03/09 07:33:06;;;;;;;10.05;3.25;;;;;;;-2.47;58.66;99748.33;1722056;83;21380;-67
2021/03/09 07:35:34;;;;;;;6.33;2.30;;;;;;;-2.39;58.52;99747.50;1727303;80;21159;-70
2021/03/09 07:38:04;;;;;;;5.47;2.58;;;;;;;-2.33;58.65;99747.13;1740274;82;21028;-71
2021/03/09 07:40:34;;;;;;;4.00;2.22;;;;;;;-2.26;58.89;99749.69;1751789;82;21216;-71
2021/03/09 07:43:03;;;;;;;6.12;2.55;;;;;;;-2.16;59.05;99749.45;1733574;82;20956;-69
2021/03/09 07:45:37;;;;;;;7.97;2.67;;;;;;;-2.02;59.23;99742.84;1721803;83;21095;-71
2021/03/09 07:48:08;;;;;;;4.83;2.17;;;;;;;-1.91;59.46;99749.30;1721957;83;21138;-70
2021/03/09 07:50:39;;;;;;;5.60;2.47;;;;;;;-1.77;59.47;99753.44;1722238;83;20956;-72
2021/03/09 07:53:15;;;;;;;13.13;3.22;;;;;;;-1.69;58.61;99746.88;1722252;83;21601;-70
2021/03/09 07:55:45;;;;;;;7.72;2.60;;;;;;;-1.66;58.59;99754.48;1721358;83;21205;-70
2021/03/09 07:58:22;;;;;;;7.70;2.20;;;;;;;-1.55;58.61;99760.42;1721343;83;22304;-70
2021/03/09 08:00:57;;;;;;;9.18;2.62;;;;;;;-1.55;58.38;99758.26;1721325;83;21181;-70
2021/03/09 08:03:30;;;;;;;14.75;4.05;;;;;;;-1.61;57.63;99761.35;1721718;83;21612;-70
2021/03/09 08:06:03;;;;;;;13.13;4.47;;;;;;;-1.67;57.82;99767.13;1721751;83;21170;-70
2021/03/09 08:11:31;;;;;;;7.62;2.87;;;;;;;-1.64;57.58;99763.16;1873355;76;22835;-71
2021/03/09 08:14:08;;;;;;;;;;;;;;;-1.62;57.97;99766.44;1831198;76;20996;-72
2021/03/09 08:16:37;;;;;;;5.47;2.00;;;;;;;-1.49;58.15;99769.45;1808764;79;22262;-72
2021/03/09 08:19:25;;;;;;;4.05;2.50;;;;;;;-1.48;57.60;99765.70;1808533;79;21059;-69
2021/03/09 08:22:00;;;;;;;5.85;2.55;;;;;;;-1.25;57.50;99763.57;1808628;79;21499;-70
2021/03/09 08:24:45;;;;;;;8.53;3.05;;;;;;;-0.87;56.37;99763.08;1808435;79;21046;-70
2021/03/09 08:27:32;;;;;;;5.53;2.42;;;;;;;-0.52;56.00;99761.64;1808631;78;20909;-69
2021/03/09 08:30:17;;;;;;;5.22;2.40;;;;;;;-0.10;53.05;99767.09;1808601;79;21362;-68
2021/03/09 08:32:45;;;;;;;11.40;2.62;;;;;;;0.19;51.98;99765.18;1808532;79;20932;-69
2021/03/09 08:35:18;;;;;;;5.15;2.27;;;;;;;0.59;50.67;99765.04;1808566;79;21483;-70
2021/03/09 08:37:49;;;;;;;4.75;2.00;;;;;;;0.88;49.92;99759.02;1808409;79;21169;-71
2021/03/09 08:40:19;;;;;;;3.33;2.10;;;;;;;1.11;48.80;99762.07;1808525;79;21153;-74
2021/03/09 08:43:11;;;;;;;4.78;2.12;;;;;;;1.14;49.14;99772.92;1813100;76;21259;-79
2021/03/09 08:45:46;;;;;;;4.80;2.72;;;;;;;1.07;48.42;99768.22;1831448;78;20971;-74
2021/03/09 08:48:13;;;;;;;4.97;2.55;;;;;;;1.15;47.99;99763.21;1839909;77;20924;-71
2021/03/09 08:50:44;;;;;;;4.42;2.55;;;;;;;1.19;46.84;99772.43;1841557;78;21562;-74
2021/03/09 08:53:28;;;;;;;;;;;;;;;1.13;47.59;99776.69;1839891;77;21486;-73
2021/03/09 08:56:03;;;;;;;6.62;2.90;;;;;;;1.06;45.39;99772.81;1787858;80;21333;-72
2021/03/09 08:58:31;;;;;;;10.25;2.67;;;;;;;0.73;44.94;99779.58;1787717;79;20950;-72
2021/03/09 09:01:00;;;;;;;3.75;2.08;;;;;;;0.38;46.01;99776.59;1787832;80;21139;-71
2021/03/09 09:03:39;;;;;;;4.92;1.85;;;;;;;0.11;46.59;99783.65;1787534;80;20996;-69
2021/03/09 09:06:07;;;;;;;5.47;1.85;;;;;;;-0.04;46.31;99790.42;1787752;80;21056;-68
2021/03/09 09:08:35;;;;;;;4.45;2.10;;;;;;;-0.06;46.21;99789.03;1787761;79;21347;-78
2021/03/09 09:11:02;;;;;;;6.35;2.60;;;;;;;-0.08;45.31;99791.14;1784899;80;21102;-74
2021/03/09 09:13:34;;;;;;;4.85;1.65;;;;;;;-0.15;46.27;99791.28;1783625;80;20968;-74
2021/03/09 09:16:06;;;;;;;3.50;1.90;;;;;;;-0.18;45.21;99801.73;1784005;80;21468;-78
2021/03/09 09:18:35;;;;;;;5.67;2.15;;;;;;;-0.28;45.10;99796.95;1782466;80;20929;-74
2021/03/09 09:21:04;;;;;;;7.90;2.62;;;;;;;-0.37;45.04;99805.94;1740591;80;21376;-73
2021/03/09 09:23:33;;;;;;;3.83;2.37;;;;;;;-0.49;45.32;99806.49;1771275;81;21528;-73
2021/03/09 09:26:01;;;;;;;9.33;2.62;;;;;;;-0.60;44.31;99806.01;1740771;80;21127;-72
2021/03/09 09:28:33;;;;;;;4.85;2.35;;;;;;;-0.75;45.23;99812.41;1760976;80;20981;-74
2021/03/09 09:31:16;;;;;;;11.45;2.70;;;;;;;-0.88;46.02;99813.47;1763380;80;21016;-70
2021/03/09 09:33:51;;;;;;;2.83;1.65;;;;;;;-0.93;45.81;99813.88;1777688;78;21342;-71
2021/03/09 09:36:22;;;;;;;4.72;2.00;;;;;;;-1.03;45.76;99815.80;1791040;78;21579;-70
2021/03/09 09:38:54;;;;;;;6.30;2.12;;;;;;;-1.10;45.64;99816.44;1762857;80;20993;-71
2021/03/09 09:41:24;;;;;;;3.15;1.87;;;;;;;-1.05;46.25;99817.38;1759770;81;21123;-70
2021/03/09 09:43:52;;;;;;;5.25;2.10;;;;;;;-0.91;45.58;99813.93;1759706;81;20893;-71
2021/03/09 09:46:25;;;;;;;2.67;1.37;;;;;;;-0.84;45.70;99820.03;1740658;82;21208;-71
2021/03/09 09:48:54;;;;;;;5.33;1.40;;;;;;;-0.78;46.42;99824.48;1789568;78;20960;-70
2021/03/09 09:51:24;;;;;;;4.15;1.62;;;;;;;-0.72;45.33;99826.23;1791049;80;21485;-73
2021/03/09 09:53:53;;;;;;;5.53;1.52;;;;;;;-0.63;45.77;99821.31;1791093;80;21469;-71
2021/03/09 09:56:25;;;;;;;5.25;1.90;;;;;;;-0.44;44.00;99817.92;1791193;80;20929;-75
2021/03/09 09:58:56;;;;;;;4.42;1.92;;;;;;;-0.47;42.82;99821.91;1791346;78;21364;-75
2021/03/09 10:01:36;;;;;;;5.55;2.67;;;;;;;-0.60;42.69;99824.06;1791361;80;20894;-76
2021/03/09 10:04:13;;;;;;;5.30;2.15;;;;;;;-0.68;43.85;99827.94;1791853;80;20898;-75
2021/03/09 10:06:44;;;;;;;8.88;1.72;;;;;;;-0.46;43.44;99828.13;1791724;80;21503;-76
2021/03/09 10:09:23;;;;;;;3.62;1.70;;;;;;;-0.31;43.57;99823.05;1792435;78;21532;-75
2021/03/09 10:11:57;;;;;;;4.80;2.33;;;;;;;-0.25;42.57;99826.68;1798717;79;22105;-76
2021/03/09 10:17:07;;;;;;;19.35;4.55;;;;;;;0.08;41.41;99820.05;1873778;76;22703;-77
2021/03/09 10:19:37;;;;;;;7.65;3.47;;;;;;;0.00;41.08;99822.59;1811727;78;21447;-77
2021/03/09 10:22:18;;;;;;;5.17;2.22;;;;;;;-0.04;40.00;99821.46;1841774;77;22319;-78
2021/03/09 10:24:46;;;;;;;3.62;1.65;;;;;;;-0.08;39.96;99823.00;1841467;78;20959;-72
2021/03/09 10:27:17;;;;;;;5.42;2.67;;;;;;;-0.09;41.49;99823.23;1841566;77;20936;-72
2021/03/09 10:29:44;;;;;;;6.42;2.85;;;;;;;-0.11;40.46;99819.43;1831893;76;20913;-73
2021/03/09 10:32:15;;;;;;;11.00;2.83;;;;;;;-0.05;40.38;99825.75;1809454;78;20972;-73
2021/03/09 10:37:37;;;;;;;3.77;1.87;;;;;;;-0.09;38.55;99824.06;1873699;75;22703;-73
2021/03/09 10:40:14;;;;;;;3.58;1.80;;;;;;;-0.22;39.16;99823.50;1841694;78;20960;-72
2021/03/09 10:42:52;;;;;;;7.12;2.87;;;;;;;-0.13;40.34;99827.47;1808673;79;23509;-73
2021/03/09 10:45:26;;;;;;;6.10;2.67;;;;;;;0.03;40.01;99817.77;1808666;79;21135;-73
2021/03/09 10:48:01;;;;;;;4.35;2.20;;;;;;;0.04;38.80;99824.81;1808600;79;20916;-73
2021/03/09 10:50:32;;;;;;;5.15;2.12;;;;;;;-0.11;38.86;99822.12;1808586;79;20932;-74
2021/03/09 10:52:59;;;;;;;3.95;1.90;;;;;;;-0.23;39.37;99817.82;1808644;79;20980;-74
2021/03/09 10:55:29;;;;;;;7.60;2.30;;;;;;;-0.34;39.32;99823.00;1806992;79;21420;-73
2021/03/09 10:57:56;;;;;;;3.37;2.00;;;;;;;-0.39;39.90;99828.81;1796294;78;21465;-73
2021/03/09 11:00:24;;;;;;;2.87;1.50;;;;;;;-0.36;39.32;99821.59;1808111;78;20921;-73
2021/03/09 11:02:52;;;;;;;3.72;1.60;;;;;;;-0.34;39.91;99823.00;1808092;79;21189;-72
2021/03/09 11:05:22;;;;;;;5.65;2.40;;;;;;;-0.36;39.69;99824.30;1808238;79;20971;-73
2021/03/09 11:07:50;;;;;;;6.22;3.02;;;;;;;-0.42;38.72;99824.72;1808287;78;21199;-73
2021/03/09 11:10:19;;;;;;;6.15;2.80;;;;;;;-0.53;38.65;99827.42;1807990;79;21082;-73
2021/03/09 11:12:47;;;;;;;7.20;3.35;;;;;;;-0.58;38.67;99824.65;1808396;79;21003;-73
2021/03/09 11:15:16;;;;;;;9.90;3.75;;;;;;;-0.56;39.92;99831.41;1808126;78;20948;-74
2021/03/09 11:17:44;;;;;;;8.43;2.10;;;;;;;-0.46;39.63;99836.22;1808065;79;21067;-72
2021/03/09 11:20:14;;;;;;;4.97;1.80;;;;;;;-0.38;38.92;99830.45;1804228;79;23572;-72
2021/03/09 11:22:42;;;;;;;4.17;1.70;;;;;;;-0.40;39.40;99830.70;1795833;79;21556;-71
2021/03/09 11:25:12;;;;;;;2.42;1.47;;;;;;;-0.46;39.21;99828.13;1793823;79;20990;-73
2021/03/09 11:27:40;;;;;;;9.00;2.35;;;;;;;-0.38;39.87;99832.63;1795608;80;20982;-71
2021/03/09 11:30:09;;;;;;;4.95;2.08;;;;;;;-0.27;37.70;99831.49;1801456;78;21154;-71
2021/03/09 11:32:37;;;;;;;6.17;2.55;;;;;;;-0.22;40.33;99831.60;1805564;78;21368;-72
2021/03/09 11:35:07;;;;;;;4.70;2.52;;;;;;;0.06;39.70;99826.74;1808137;79;20984;-73
2021/03/09 11:37:34;;;;;;;6.47;2.60;;;;;;;0.24;38.58;99823.33;1813496;78;21581;-78
2021/03/09 11:40:05;;;;;;;13.62;5.15;;;;;;;0.32;37.77;99812.67;1813676;79;21633;-79
2021/03/09 11:42:32;;;;;;;5.45;2.58;;;;;;;0.32;37.56;99822.94;1813932;78;21101;-81
2021/03/09 11:44:59;;;;;;;3.60;1.70;;;;;;;0.27;37.49;99823.38;1813874;79;21191;-80
2021/03/09 11:47:27;;;;;;;22.15;6.80;;;;;;;0.18;36.71;99818.89;1813295;77;21023;-79
2021/03/09 11:49:55;;;;;;;14.83;5.03;;;;;;;0.10;37.98;99819.27;1813108;79;20885;-79
2021/03/09 11:52:23;;;;;;;7.03;2.52;;;;;;;0.19;37.25;99818.36;1813231;79;21054;-81
2021/03/09 11:54:52;;;;;;;4.45;2.17;;;;;;;0.17;37.25;99817.25;1813046;78;20963;-80
2021/03/09 11:57:20;;;;;;;5.80;2.60;;;;;;;0.13;36.46;99826.89;1813200;79;21359;-79
2021/03/09 11:59:48;;;;;;;4.22;1.98;;;;;;;-0.04;36.46;99832.26;1812907;78;21039;-78
2021/03/09 12:02:16;;;;;;;5.62;2.45;;;;;;;-0.10;37.34;99828.34;1812550;79;22065;-79